sensor_id;sensor_type;location;lat;lon;timestamp;temperature;humidity
15394;DHT22;7795;47.986;11.868;2024-03-23T00:55:25;11.80;72.10
15394;DHT22;7795;47.986;11.868;2024-03-23T00:57:51;11.80;72.10
15394;DHT22;7795;47.986;11.868;2024-03-23T01:00:17;11.80;72.20
15394;DHT22;7795;47.986;11.868;2024-03-23T01:02:42;11.70;72.30
15394;DHT22;7795;47.986;11.868;2024-03-23T01:05:08;11.70;72.40
15394;DHT22;7795;47.986;11.868;2024-03-23T01:07:34;11.60;72.40
15394;DHT22;7795;47.986;11.868;2024-03-23T01:10:02;11.60;72.40
15394;DHT22;7795;47.986;11.868;2024-03-23T01:12:27;11.60;72.50
15394;DHT22;7795;47.986;11.868;2024-03-23T01:14:54;11.50;72.50
15394;DHT22;7795;47.986;11.868;2024-03-23T01:17:19;11.50;72.60
15394;DHT22;7795;47.986;11.868;2024-03-23T01:19:45;11.40;72.50
15394;DHT22;7795;47.986;11.868;2024-03-23T01:22:11;11.40;72.40
15394;DHT22;7795;47.986;11.868;2024-03-23T01:24:38;11.40;72.40
15394;DHT22;7795;47.986;11.868;2024-03-23T01:27:05;11.30;72.30
15394;DHT22;7795;47.986;11.868;2024-03-23T01:29:31;11.30;72.40
15394;DHT22;7795;47.986;11.868;2024-03-23T01:31:57;11.20;72.40
15394;DHT22;7795;47.986;11.868;2024-03-23T01:34:22;11.20;72.40
15394;DHT22;7795;47.986;11.868;2024-03-23T01:36:50;11.20;72.60
15394;DHT22;7795;47.986;11.868;2024-03-23T01:39:16;11.10;72.60
15394;DHT22;7795;47.986;11.868;2024-03-23T01:41:42;11.10;72.80
15394;DHT22;7795;47.986;11.868;2024-03-23T01:44:10;11.10;72.80
15394;DHT22;7795;47.986;11.868;2024-03-23T01:46:37;11.00;72.80
15394;DHT22;7795;47.986;11.868;2024-03-23T01:49:03;11.00;72.90
15394;DHT22;7795;47.986;11.868;2024-03-23T01:51:30;11.00;72.90
15394;DHT22;7795;47.986;11.868;2024-03-23T01:53:57;11.00;72.90
15394;DHT22;7795;47.986;11.868;2024-03-23T01:56:23;10.90;72.90
15394;DHT22;7795;47.986;11.868;2024-03-23T01:58:49;10.90;72.90
15394;DHT22;7795;47.986;11.868;2024-03-23T02:01:16;10.90;73.00
15394;DHT22;7795;47.986;11.868;2024-03-23T02:03:44;10.90;73.00
15394;DHT22;7795;47.986;11.868;2024-03-23T02:06:10;10.80;73.00
15394;DHT22;7795;47.986;11.868;2024-03-23T02:08:35;10.80;73.00
15394;DHT22;7795;47.986;11.868;2024-03-23T02:11:01;10.80;73.00
15394;DHT22;7795;47.986;11.868;2024-03-23T02:13:27;10.80;73.10
15394;DHT22;7795;47.986;11.868;2024-03-23T02:15:53;10.70;73.10
15394;DHT22;7795;47.986;11.868;2024-03-23T02:18:21;10.70;73.30
15394;DHT22;7795;47.986;11.868;2024-03-23T02:20:46;10.70;73.40
15394;DHT22;7795;47.986;11.868;2024-03-23T02:23:17;10.60;73.30
15394;DHT22;7795;47.986;11.868;2024-03-23T02:25:44;10.60;73.50
15394;DHT22;7795;47.986;11.868;2024-03-23T02:28:10;10.60;73.40
15394;DHT22;7795;47.986;11.868;2024-03-23T02:30:36;10.60;73.40
15394;DHT22;7795;47.986;11.868;2024-03-23T02:33:03;10.50;73.50
15394;DHT22;7795;47.986;11.868;2024-03-23T02:35:29;10.50;73.40
15394;DHT22;7795;47.986;11.868;2024-03-23T02:37:54;10.50;73.40
15394;DHT22;7795;47.986;11.868;2024-03-23T02:40:23;10.40;73.30
15394;DHT22;7795;47.986;11.868;2024-03-23T02:42:49;10.40;73.20
15394;DHT22;7795;47.986;11.868;2024-03-23T02:45:15;10.40;73.10
15394;DHT22;7795;47.986;11.868;2024-03-23T02:47:41;10.40;73.20
15394;DHT22;7795;47.986;11.868;2024-03-23T02:50:07;10.30;73.10
15394;DHT22;7795;47.986;11.868;2024-03-23T02:52:34;10.30;73.20
15394;DHT22;7795;47.986;11.868;2024-03-23T02:55:00;10.30;73.20
15394;DHT22;7795;47.986;11.868;2024-03-23T02:57:29;10.20;73.30
15394;DHT22;7795;47.986;11.868;2024-03-23T02:59:55;10.20;73.30
15394;DHT22;7795;47.986;11.868;2024-03-23T03:02:21;10.20;73.30
15394;DHT22;7795;47.986;11.868;2024-03-23T03:04:47;10.20;73.30
15394;DHT22;7795;47.986;11.868;2024-03-23T03:07:13;10.10;73.30
15394;DHT22;7795;47.986;11.868;2024-03-23T03:09:39;10.10;73.40
15394;DHT22;7795;47.986;11.868;2024-03-23T03:12:06;10.10;73.50
15394;DHT22;7795;47.986;11.868;2024-03-23T03:14:33;10.00;73.50
15394;DHT22;7795;47.986;11.868;2024-03-23T03:16:59;10.00;73.70
15394;DHT22;7795;47.986;11.868;2024-03-23T03:19:25;10.00;73.80
15394;DHT22;7795;47.986;11.868;2024-03-23T03:21:51;10.00;73.80
15394;DHT22;7795;47.986;11.868;2024-03-23T03:24:17;10.00;74.00
15394;DHT22;7795;47.986;11.868;2024-03-23T03:26:43;10.00;74.00
15394;DHT22;7795;47.986;11.868;2024-03-23T03:29:09;10.00;74.10
15394;DHT22;7795;47.986;11.868;2024-03-23T03:31:36;10.00;74.10
15394;DHT22;7795;47.986;11.868;2024-03-23T03:34:02;10.10;74.20
15394;DHT22;7795;47.986;11.868;2024-03-23T03:36:28;10.10;74.20
15394;DHT22;7795;47.986;11.868;2024-03-23T03:38:54;10.10;74.10
15394;DHT22;7795;47.986;11.868;2024-03-23T03:41:19;10.10;74.00
15394;DHT22;7795;47.986;11.868;2024-03-23T03:43:45;10.10;73.90
15394;DHT22;7795;47.986;11.868;2024-03-23T03:46:11;10.10;73.80
15394;DHT22;7795;47.986;11.868;2024-03-23T03:48:38;10.10;73.70
15394;DHT22;7795;47.986;11.868;2024-03-23T03:51:04;10.10;73.60
15394;DHT22;7795;47.986;11.868;2024-03-23T03:53:30;10.10;73.50
15394;DHT22;7795;47.986;11.868;2024-03-23T03:55:56;10.10;73.40
15394;DHT22;7795;47.986;11.868;2024-03-23T03:58:22;10.10;73.40
15394;DHT22;7795;47.986;11.868;2024-03-23T04:00:48;10.00;73.30
15394;DHT22;7795;47.986;11.868;2024-03-23T04:03:14;10.00;73.30
15394;DHT22;7795;47.986;11.868;2024-03-23T04:05:41;10.00;73.30
15394;DHT22;7795;47.986;11.868;2024-03-23T04:08:07;10.00;73.30
15394;DHT22;7795;47.986;11.868;2024-03-23T04:10:33;9.90;73.30
15394;DHT22;7795;47.986;11.868;2024-03-23T04:12:59;9.90;73.30
15394;DHT22;7795;47.986;11.868;2024-03-23T04:15:25;9.90;73.40
15394;DHT22;7795;47.986;11.868;2024-03-23T04:17:51;9.90;73.40
15394;DHT22;7795;47.986;11.868;2024-03-23T04:20:17;9.90;74.30
15394;DHT22;7795;47.986;11.868;2024-03-23T04:22:44;9.80;73.50
15394;DHT22;7795;47.986;11.868;2024-03-23T04:25:10;9.80;73.50
15394;DHT22;7795;47.986;11.868;2024-03-23T04:27:36;9.80;73.50
15394;DHT22;7795;47.986;11.868;2024-03-23T04:30:03;9.80;73.60
15394;DHT22;7795;47.986;11.868;2024-03-23T04:32:30;9.80;73.60
15394;DHT22;7795;47.986;11.868;2024-03-23T04:34:56;9.70;73.60
15394;DHT22;7795;47.986;11.868;2024-03-23T04:37:22;9.70;73.60
15394;DHT22;7795;47.986;11.868;2024-03-23T04:39:49;9.70;74.30
15394;DHT22;7795;47.986;11.868;2024-03-23T04:42:15;9.70;73.60
15394;DHT22;7795;47.986;11.868;2024-03-23T04:44:42;9.60;73.60
15394;DHT22;7795;47.986;11.868;2024-03-23T04:47:08;9.60;73.60
15394;DHT22;7795;47.986;11.868;2024-03-23T04:49:33;9.60;73.70
15394;DHT22;7795;47.986;11.868;2024-03-23T04:52:02;9.60;73.70
15394;DHT22;7795;47.986;11.868;2024-03-23T04:54:28;9.50;73.70
15394;DHT22;7795;47.986;11.868;2024-03-23T04:56:56;9.50;73.70
15394;DHT22;7795;47.986;11.868;2024-03-23T04:59:22;9.50;73.70
15394;DHT22;7795;47.986;11.868;2024-03-23T05:01:47;9.50;73.70
15394;DHT22;7795;47.986;11.868;2024-03-23T05:04:13;9.50;73.70
15394;DHT22;7795;47.986;11.868;2024-03-23T05:06:39;9.50;73.60
15394;DHT22;7795;47.986;11.868;2024-03-23T05:09:05;9.40;73.50
15394;DHT22;7795;47.986;11.868;2024-03-23T05:11:37;9.40;73.40
15394;DHT22;7795;47.986;11.868;2024-03-23T05:14:04;9.40;73.40
15394;DHT22;7795;47.986;11.868;2024-03-23T05:16:30;9.30;73.50
15394;DHT22;7795;47.986;11.868;2024-03-23T05:18:56;9.30;73.60
15394;DHT22;7795;47.986;11.868;2024-03-23T05:21:22;9.30;73.60
15394;DHT22;7795;47.986;11.868;2024-03-23T05:23:48;9.30;73.70
15394;DHT22;7795;47.986;11.868;2024-03-23T05:26:13;9.20;73.60
15394;DHT22;7795;47.986;11.868;2024-03-23T05:28:40;9.20;73.80
15394;DHT22;7795;47.986;11.868;2024-03-23T05:31:07;9.20;73.80
15394;DHT22;7795;47.986;11.868;2024-03-23T05:33:34;9.20;73.80
15394;DHT22;7795;47.986;11.868;2024-03-23T05:36:01;9.20;73.80
15394;DHT22;7795;47.986;11.868;2024-03-23T05:38:27;9.20;73.80
15394;DHT22;7795;47.986;11.868;2024-03-23T05:40:54;9.10;73.80
15394;DHT22;7795;47.986;11.868;2024-03-23T05:43:20;9.10;73.80
15394;DHT22;7795;47.986;11.868;2024-03-23T05:45:45;9.10;73.80
15394;DHT22;7795;47.986;11.868;2024-03-23T05:48:13;9.10;73.90
15394;DHT22;7795;47.986;11.868;2024-03-23T05:50:39;9.10;74.10
15394;DHT22;7795;47.986;11.868;2024-03-23T05:53:04;9.10;74.10
15394;DHT22;7795;47.986;11.868;2024-03-23T05:55:31;9.10;74.20
15394;DHT22;7795;47.986;11.868;2024-03-23T05:57:57;9.10;74.30
15394;DHT22;7795;47.986;11.868;2024-03-23T06:00:23;9.10;74.20
15394;DHT22;7795;47.986;11.868;2024-03-23T06:02:51;9.20;74.20
15394;DHT22;7795;47.986;11.868;2024-03-23T06:05:19;9.20;74.20
15394;DHT22;7795;47.986;11.868;2024-03-23T06:07:44;9.20;74.30
15394;DHT22;7795;47.986;11.868;2024-03-23T06:10:10;9.20;74.20
15394;DHT22;7795;47.986;11.868;2024-03-23T06:12:36;9.20;74.20
15394;DHT22;7795;47.986;11.868;2024-03-23T06:15:02;9.20;74.30
15394;DHT22;7795;47.986;11.868;2024-03-23T06:17:28;9.20;74.40
15394;DHT22;7795;47.986;11.868;2024-03-23T06:19:54;9.20;74.50
15394;DHT22;7795;47.986;11.868;2024-03-23T06:22:21;9.30;75.40
15394;DHT22;7795;47.986;11.868;2024-03-23T06:24:48;9.30;74.90
15394;DHT22;7795;47.986;11.868;2024-03-23T06:27:13;9.40;75.10
15394;DHT22;7795;47.986;11.868;2024-03-23T06:29:39;9.40;75.30
15394;DHT22;7795;47.986;11.868;2024-03-23T06:32:05;9.50;75.50
15394;DHT22;7795;47.986;11.868;2024-03-23T06:34:31;9.60;75.90
15394;DHT22;7795;47.986;11.868;2024-03-23T06:36:57;9.80;76.40
15394;DHT22;7795;47.986;11.868;2024-03-23T06:39:24;10.00;76.70
15394;DHT22;7795;47.986;11.868;2024-03-23T06:41:54;10.30;77.20
15394;DHT22;7795;47.986;11.868;2024-03-23T06:44:20;10.60;77.40
15394;DHT22;7795;47.986;11.868;2024-03-23T06:46:46;11.10;77.60
15394;DHT22;7795;47.986;11.868;2024-03-23T06:49:13;11.50;77.60
15394;DHT22;7795;47.986;11.868;2024-03-23T06:51:39;12.00;77.80
15394;DHT22;7795;47.986;11.868;2024-03-23T06:54:05;12.50;77.30
15394;DHT22;7795;47.986;11.868;2024-03-23T06:56:32;12.90;76.90
15394;DHT22;7795;47.986;11.868;2024-03-23T06:58:58;13.40;76.40
15394;DHT22;7795;47.986;11.868;2024-03-23T07:01:24;13.90;76.00
15394;DHT22;7795;47.986;11.868;2024-03-23T07:03:50;14.40;75.30
15394;DHT22;7795;47.986;11.868;2024-03-23T07:06:16;14.90;74.60
15394;DHT22;7795;47.986;11.868;2024-03-23T07:08:42;15.30;73.60
15394;DHT22;7795;47.986;11.868;2024-03-23T07:11:07;15.60;72.40
15394;DHT22;7795;47.986;11.868;2024-03-23T07:13:35;15.80;71.10
15394;DHT22;7795;47.986;11.868;2024-03-23T07:16:00;15.90;70.00
15394;DHT22;7795;47.986;11.868;2024-03-23T07:18:26;16.00;69.40
15394;DHT22;7795;47.986;11.868;2024-03-23T07:20:53;16.00;68.90
15394;DHT22;7795;47.986;11.868;2024-03-23T07:23:19;15.90;68.10
15394;DHT22;7795;47.986;11.868;2024-03-23T07:25:45;15.90;67.60
15394;DHT22;7795;47.986;11.868;2024-03-23T07:28:11;15.80;67.40
15394;DHT22;7795;47.986;11.868;2024-03-23T07:30:38;15.80;67.40
15394;DHT22;7795;47.986;11.868;2024-03-23T07:33:04;15.80;66.80
15394;DHT22;7795;47.986;11.868;2024-03-23T07:35:30;15.70;66.50
15394;DHT22;7795;47.986;11.868;2024-03-23T07:37:55;15.70;66.10
15394;DHT22;7795;47.986;11.868;2024-03-23T07:40:21;15.70;65.80
15394;DHT22;7795;47.986;11.868;2024-03-23T07:42:47;15.70;65.40
15394;DHT22;7795;47.986;11.868;2024-03-23T07:45:13;15.70;65.60
15394;DHT22;7795;47.986;11.868;2024-03-23T07:47:40;15.80;65.60
15394;DHT22;7795;47.986;11.868;2024-03-23T07:50:07;15.90;65.10
15394;DHT22;7795;47.986;11.868;2024-03-23T07:52:33;15.90;65.30
15394;DHT22;7795;47.986;11.868;2024-03-23T07:54:59;16.00;65.30
15394;DHT22;7795;47.986;11.868;2024-03-23T07:57:25;16.10;65.00
15394;DHT22;7795;47.986;11.868;2024-03-23T07:59:51;16.20;64.10
15394;DHT22;7795;47.986;11.868;2024-03-23T08:02:17;16.30;64.20
15394;DHT22;7795;47.986;11.868;2024-03-23T08:04:44;16.40;64.00
15394;DHT22;7795;47.986;11.868;2024-03-23T08:07:10;16.50;62.60
15394;DHT22;7795;47.986;11.868;2024-03-23T08:09:36;16.60;63.30
15394;DHT22;7795;47.986;11.868;2024-03-23T08:12:02;16.70;63.20
15394;DHT22;7795;47.986;11.868;2024-03-23T08:14:28;16.70;62.70
15394;DHT22;7795;47.986;11.868;2024-03-23T08:16:55;16.80;62.60
15394;DHT22;7795;47.986;11.868;2024-03-23T08:19:21;16.90;62.70
15394;DHT22;7795;47.986;11.868;2024-03-23T08:21:48;17.00;62.30
15394;DHT22;7795;47.986;11.868;2024-03-23T08:24:14;17.00;62.60
15394;DHT22;7795;47.986;11.868;2024-03-23T08:26:40;17.10;62.50
15394;DHT22;7795;47.986;11.868;2024-03-23T08:29:06;17.10;62.40
15394;DHT22;7795;47.986;11.868;2024-03-23T08:31:32;17.10;62.00
15394;DHT22;7795;47.986;11.868;2024-03-23T08:33:58;17.10;62.00
15394;DHT22;7795;47.986;11.868;2024-03-23T08:36:24;17.00;62.40
15394;DHT22;7795;47.986;11.868;2024-03-23T08:38:51;17.00;62.00
15394;DHT22;7795;47.986;11.868;2024-03-23T08:41:19;16.90;62.10
15394;DHT22;7795;47.986;11.868;2024-03-23T08:43:45;16.80;62.10
15394;DHT22;7795;47.986;11.868;2024-03-23T13:39:26;12.70;69.20
15394;DHT22;7795;47.986;11.868;2024-03-23T13:41:54;12.70;69.00
15394;DHT22;7795;47.986;11.868;2024-03-23T13:44:21;12.70;68.90
15394;DHT22;7795;47.986;11.868;2024-03-23T13:46:47;12.60;68.80
15394;DHT22;7795;47.986;11.868;2024-03-23T13:49:25;12.60;69.00
15394;DHT22;7795;47.986;11.868;2024-03-23T13:51:55;12.60;69.00
15394;DHT22;7795;47.986;11.868;2024-03-23T13:54:21;12.60;69.20
15394;DHT22;7795;47.986;11.868;2024-03-23T13:56:49;12.60;69.40
15394;DHT22;7795;47.986;11.868;2024-03-23T13:59:15;12.60;69.40
15394;DHT22;7795;47.986;11.868;2024-03-23T14:01:41;12.60;69.40
15394;DHT22;7795;47.986;11.868;2024-03-23T14:04:07;12.60;69.30
15394;DHT22;7795;47.986;11.868;2024-03-23T14:06:33;12.60;69.10
15394;DHT22;7795;47.986;11.868;2024-03-23T14:08:59;12.50;69.10
15394;DHT22;7795;47.986;11.868;2024-03-23T14:11:25;12.50;68.80
15394;DHT22;7795;47.986;11.868;2024-03-23T14:13:53;12.50;68.30
15394;DHT22;7795;47.986;11.868;2024-03-23T14:16:19;12.40;68.10
15394;DHT22;7795;47.986;11.868;2024-03-23T14:18:46;12.30;68.70
15394;DHT22;7795;47.986;11.868;2024-03-23T14:21:12;12.20;68.00
15394;DHT22;7795;47.986;11.868;2024-03-23T14:23:38;12.20;68.00
15394;DHT22;7795;47.986;11.868;2024-03-23T14:26:04;12.10;68.00
15394;DHT22;7795;47.986;11.868;2024-03-23T14:28:29;12.10;68.00
15394;DHT22;7795;47.986;11.868;2024-03-23T14:30:57;12.00;68.00
15394;DHT22;7795;47.986;11.868;2024-03-23T14:33:23;12.00;68.00
15394;DHT22;7795;47.986;11.868;2024-03-23T14:35:53;11.90;67.70
15394;DHT22;7795;47.986;11.868;2024-03-23T14:38:19;11.80;67.30
15394;DHT22;7795;47.986;11.868;2024-03-23T14:40:45;11.80;68.30
15394;DHT22;7795;47.986;11.868;2024-03-23T14:43:11;11.70;67.60
15394;DHT22;7795;47.986;11.868;2024-03-23T14:45:37;11.60;67.80
15394;DHT22;7795;47.986;11.868;2024-03-23T14:48:04;11.50;67.80
15394;DHT22;7795;47.986;11.868;2024-03-23T14:50:30;11.40;68.00
15394;DHT22;7795;47.986;11.868;2024-03-23T14:52:56;11.30;68.20
15394;DHT22;7795;47.986;11.868;2024-03-23T14:55:22;11.10;68.20
15394;DHT22;7795;47.986;11.868;2024-03-23T14:57:48;11.00;68.30
15394;DHT22;7795;47.986;11.868;2024-03-23T15:00:16;10.80;68.40
15394;DHT22;7795;47.986;11.868;2024-03-23T15:02:44;10.70;68.40
15394;DHT22;7795;47.986;11.868;2024-03-23T15:05:12;10.60;68.60
15394;DHT22;7795;47.986;11.868;2024-03-23T15:07:38;10.40;68.70
15394;DHT22;7795;47.986;11.868;2024-03-23T15:10:06;10.30;68.70
15394;DHT22;7795;47.986;11.868;2024-03-23T15:12:33;10.20;68.40
15394;DHT22;7795;47.986;11.868;2024-03-23T15:14:59;10.10;68.50
15394;DHT22;7795;47.986;11.868;2024-03-23T15:17:26;10.00;68.80
15394;DHT22;7795;47.986;11.868;2024-03-23T15:19:51;9.90;68.90
15394;DHT22;7795;47.986;11.868;2024-03-23T15:22:20;9.80;69.00
15394;DHT22;7795;47.986;11.868;2024-03-23T15:24:47;9.70;69.30
15394;DHT22;7795;47.986;11.868;2024-03-23T15:27:13;9.60;69.40
15394;DHT22;7795;47.986;11.868;2024-03-23T15:29:39;9.50;69.40
15394;DHT22;7795;47.986;11.868;2024-03-23T15:32:05;9.40;69.50
15394;DHT22;7795;47.986;11.868;2024-03-23T15:34:31;9.30;69.70
15394;DHT22;7795;47.986;11.868;2024-03-23T15:36:57;9.30;70.00
15394;DHT22;7795;47.986;11.868;2024-03-23T15:39:24;9.20;70.30
15394;DHT22;7795;47.986;11.868;2024-03-23T15:41:50;9.10;70.50
15394;DHT22;7795;47.986;11.868;2024-03-23T15:44:16;9.10;70.70
15394;DHT22;7795;47.986;11.868;2024-03-23T15:46:41;9.10;71.00
15394;DHT22;7795;47.986;11.868;2024-03-23T15:49:07;9.00;71.00
15394;DHT22;7795;47.986;11.868;2024-03-23T15:51:33;9.00;71.20
15394;DHT22;7795;47.986;11.868;2024-03-23T15:54:02;9.00;71.30
15394;DHT22;7795;47.986;11.868;2024-03-23T15:56:30;9.00;71.50
15394;DHT22;7795;47.986;11.868;2024-03-23T15:58:56;9.00;71.60
15394;DHT22;7795;47.986;11.868;2024-03-23T16:01:26;9.00;71.70
15394;DHT22;7795;47.986;11.868;2024-03-23T16:03:52;9.00;72.00
15394;DHT22;7795;47.986;11.868;2024-03-23T16:06:18;9.00;72.20
15394;DHT22;7795;47.986;11.868;2024-03-23T16:08:43;9.00;72.20
15394;DHT22;7795;47.986;11.868;2024-03-23T16:11:09;9.10;72.30
15394;DHT22;7795;47.986;11.868;2024-03-23T16:13:37;9.00;72.20
15394;DHT22;7795;47.986;11.868;2024-03-23T16:16:04;9.10;72.20
15394;DHT22;7795;47.986;11.868;2024-03-23T16:18:34;9.10;72.20
15394;DHT22;7795;47.986;11.868;2024-03-23T16:21:01;9.10;72.30
15394;DHT22;7795;47.986;11.868;2024-03-23T16:23:32;9.10;72.30
15394;DHT22;7795;47.986;11.868;2024-03-23T16:25:57;9.10;72.40
15394;DHT22;7795;47.986;11.868;2024-03-23T16:28:25;9.10;72.50
15394;DHT22;7795;47.986;11.868;2024-03-23T16:30:59;9.10;72.50
15394;DHT22;7795;47.986;11.868;2024-03-23T16:33:25;9.20;72.50
15394;DHT22;7795;47.986;11.868;2024-03-23T16:35:56;9.10;72.30
15394;DHT22;7795;47.986;11.868;2024-03-23T16:38:22;9.20;72.50
15394;DHT22;7795;47.986;11.868;2024-03-23T16:40:53;9.20;72.30
15394;DHT22;7795;47.986;11.868;2024-03-23T16:43:19;9.20;72.50
15394;DHT22;7795;47.986;11.868;2024-03-23T16:45:54;9.20;72.30
15394;DHT22;7795;47.986;11.868;2024-03-23T16:48:22;9.20;72.50
15394;DHT22;7795;47.986;11.868;2024-03-23T16:50:48;9.20;72.40
15394;DHT22;7795;47.986;11.868;2024-03-23T16:53:14;9.20;72.30
15394;DHT22;7795;47.986;11.868;2024-03-23T16:55:40;9.20;72.30
15394;DHT22;7795;47.986;11.868;2024-03-23T16:58:06;9.20;72.30
15394;DHT22;7795;47.986;11.868;2024-03-23T17:00:32;9.20;72.50
15394;DHT22;7795;47.986;11.868;2024-03-23T17:02:58;9.20;72.50
15394;DHT22;7795;47.986;11.868;2024-03-23T17:05:25;9.20;72.50
15394;DHT22;7795;47.986;11.868;2024-03-23T17:07:51;9.20;72.50
15394;DHT22;7795;47.986;11.868;2024-03-23T17:10:18;9.20;72.50
15394;DHT22;7795;47.986;11.868;2024-03-23T17:12:46;9.20;72.60
15394;DHT22;7795;47.986;11.868;2024-03-23T17:15:12;9.20;72.60
15394;DHT22;7795;47.986;11.868;2024-03-23T17:17:38;9.10;72.60
15394;DHT22;7795;47.986;11.868;2024-03-23T17:20:05;9.10;72.60
15394;DHT22;7795;47.986;11.868;2024-03-23T17:22:33;9.10;72.60
15394;DHT22;7795;47.986;11.868;2024-03-23T17:24:59;9.10;72.60
15394;DHT22;7795;47.986;11.868;2024-03-23T17:27:25;9.10;72.70
15394;DHT22;7795;47.986;11.868;2024-03-23T17:29:51;9.10;72.90
15394;DHT22;7795;47.986;11.868;2024-03-23T17:32:17;9.10;73.00
15394;DHT22;7795;47.986;11.868;2024-03-23T17:34:43;9.00;72.90
15394;DHT22;7795;47.986;11.868;2024-03-23T17:37:08;9.00;72.90
15394;DHT22;7795;47.986;11.868;2024-03-23T17:39:36;9.00;72.90
15394;DHT22;7795;47.986;11.868;2024-03-23T17:42:01;9.00;72.80
15394;DHT22;7795;47.986;11.868;2024-03-23T17:44:27;9.00;72.80
15394;DHT22;7795;47.986;11.868;2024-03-23T17:46:53;9.00;72.90
15394;DHT22;7795;47.986;11.868;2024-03-23T17:49:19;9.00;73.00
15394;DHT22;7795;47.986;11.868;2024-03-23T17:51:45;8.90;72.70
15394;DHT22;7795;47.986;11.868;2024-03-23T17:54:11;8.80;72.30
15394;DHT22;7795;47.986;11.868;2024-03-23T17:56:39;8.70;72.00
15394;DHT22;7795;47.986;11.868;2024-03-23T17:59:05;8.70;72.00
15394;DHT22;7795;47.986;11.868;2024-03-23T18:01:32;8.50;71.90
15394;DHT22;7795;47.986;11.868;2024-03-23T18:03:57;8.40;71.90
15394;DHT22;7795;47.986;11.868;2024-03-23T18:06:23;8.30;72.00
15394;DHT22;7795;47.986;11.868;2024-03-23T18:08:49;8.20;72.20
15394;DHT22;7795;47.986;11.868;2024-03-23T18:11:15;8.10;72.50
15394;DHT22;7795;47.986;11.868;2024-03-23T18:13:42;8.10;72.70
15394;DHT22;7795;47.986;11.868;2024-03-23T18:16:08;8.00;72.90
15394;DHT22;7795;47.986;11.868;2024-03-23T18:18:34;7.90;73.10
15394;DHT22;7795;47.986;11.868;2024-03-23T18:21:00;7.90;73.30
15394;DHT22;7795;47.986;11.868;2024-03-23T18:23:26;7.90;73.40
15394;DHT22;7795;47.986;11.868;2024-03-23T18:25:52;7.90;73.60
15394;DHT22;7795;47.986;11.868;2024-03-23T18:28:18;7.80;73.60
15394;DHT22;7795;47.986;11.868;2024-03-23T18:30:46;7.80;73.70
15394;DHT22;7795;47.986;11.868;2024-03-23T18:33:20;7.80;73.70
15394;DHT22;7795;47.986;11.868;2024-03-23T18:35:49;7.80;73.70
15394;DHT22;7795;47.986;11.868;2024-03-23T18:38:15;7.80;73.80
15394;DHT22;7795;47.986;11.868;2024-03-23T18:40:44;7.80;73.80
15394;DHT22;7795;47.986;11.868;2024-03-23T18:43:10;7.70;73.90
15394;DHT22;7795;47.986;11.868;2024-03-23T18:45:36;7.80;74.80
15394;DHT22;7795;47.986;11.868;2024-03-23T18:48:04;7.70;74.70
15394;DHT22;7795;47.986;11.868;2024-03-23T18:50:29;7.80;74.10
15394;DHT22;7795;47.986;11.868;2024-03-23T18:52:55;7.70;74.00
15394;DHT22;7795;47.986;11.868;2024-03-23T18:55:21;7.70;73.90
15394;DHT22;7795;47.986;11.868;2024-03-23T18:57:47;7.70;74.00
15394;DHT22;7795;47.986;11.868;2024-03-23T19:00:14;7.70;74.10
15394;DHT22;7795;47.986;11.868;2024-03-23T19:02:40;7.70;74.00
15394;DHT22;7795;47.986;11.868;2024-03-23T19:05:07;7.70;74.10
15394;DHT22;7795;47.986;11.868;2024-03-23T19:07:33;7.70;74.20
15394;DHT22;7795;47.986;11.868;2024-03-23T19:09:59;7.60;74.10
15394;DHT22;7795;47.986;11.868;2024-03-23T19:12:25;7.60;74.10
15394;DHT22;7795;47.986;11.868;2024-03-23T19:14:51;7.60;74.20
15394;DHT22;7795;47.986;11.868;2024-03-23T19:17:17;7.50;74.20
15394;DHT22;7795;47.986;11.868;2024-03-23T19:19:43;7.50;74.20
15394;DHT22;7795;47.986;11.868;2024-03-23T19:22:10;7.50;74.30
15394;DHT22;7795;47.986;11.868;2024-03-23T19:24:36;7.50;74.30
15394;DHT22;7795;47.986;11.868;2024-03-23T19:27:02;7.50;74.30
15394;DHT22;7795;47.986;11.868;2024-03-23T19:29:28;7.50;74.30
15394;DHT22;7795;47.986;11.868;2024-03-23T19:31:54;7.50;74.30
15394;DHT22;7795;47.986;11.868;2024-03-23T19:34:20;7.50;74.30
15394;DHT22;7795;47.986;11.868;2024-03-23T19:36:47;7.40;74.30
15394;DHT22;7795;47.986;11.868;2024-03-23T19:39:14;7.40;74.40
15394;DHT22;7795;47.986;11.868;2024-03-23T19:41:40;7.40;74.60
15394;DHT22;7795;47.986;11.868;2024-03-23T19:44:07;7.40;74.60
15394;DHT22;7795;47.986;11.868;2024-03-23T19:46:34;7.40;74.70
15394;DHT22;7795;47.986;11.868;2024-03-23T19:48:59;7.50;74.70
15394;DHT22;7795;47.986;11.868;2024-03-23T19:51:25;7.50;74.70
15394;DHT22;7795;47.986;11.868;2024-03-23T19:53:51;7.40;74.60
15394;DHT22;7795;47.986;11.868;2024-03-23T19:56:18;7.50;74.60
15394;DHT22;7795;47.986;11.868;2024-03-23T19:58:44;7.40;74.60
15394;DHT22;7795;47.986;11.868;2024-03-23T20:01:14;7.40;74.60
15394;DHT22;7795;47.986;11.868;2024-03-23T20:03:40;7.40;74.60
15394;DHT22;7795;47.986;11.868;2024-03-23T20:06:06;7.40;74.70
15394;DHT22;7795;47.986;11.868;2024-03-23T20:08:34;7.40;74.70
15394;DHT22;7795;47.986;11.868;2024-03-23T20:11:01;7.40;74.80
15394;DHT22;7795;47.986;11.868;2024-03-23T20:13:28;7.40;74.80
15394;DHT22;7795;47.986;11.868;2024-03-23T20:15:55;7.40;75.00
15394;DHT22;7795;47.986;11.868;2024-03-23T20:18:21;7.40;75.00
15394;DHT22;7795;47.986;11.868;2024-03-23T20:20:47;7.40;74.90
15394;DHT22;7795;47.986;11.868;2024-03-23T20:23:16;7.40;74.80
15394;DHT22;7795;47.986;11.868;2024-03-23T20:25:50;7.40;74.80
15394;DHT22;7795;47.986;11.868;2024-03-23T20:28:16;7.40;75.10
15394;DHT22;7795;47.986;11.868;2024-03-23T20:30:43;7.50;75.00
15394;DHT22;7795;47.986;11.868;2024-03-23T20:33:09;7.50;75.00
15394;DHT22;7795;47.986;11.868;2024-03-23T20:35:35;7.50;75.00
15394;DHT22;7795;47.986;11.868;2024-03-23T20:38:01;7.50;74.90
15394;DHT22;7795;47.986;11.868;2024-03-23T20:40:27;7.50;75.00
15394;DHT22;7795;47.986;11.868;2024-03-23T20:42:54;7.50;75.00
15394;DHT22;7795;47.986;11.868;2024-03-23T20:45:19;7.50;75.00
15394;DHT22;7795;47.986;11.868;2024-03-23T20:47:47;7.50;75.00
15394;DHT22;7795;47.986;11.868;2024-03-23T20:50:13;7.50;75.00
15394;DHT22;7795;47.986;11.868;2024-03-23T20:52:38;7.50;75.00
15394;DHT22;7795;47.986;11.868;2024-03-23T20:55:04;7.50;75.00
15394;DHT22;7795;47.986;11.868;2024-03-23T20:57:34;7.50;75.00
15394;DHT22;7795;47.986;11.868;2024-03-23T21:00:00;7.40;74.80
15394;DHT22;7795;47.986;11.868;2024-03-23T21:02:26;7.40;74.70
15394;DHT22;7795;47.986;11.868;2024-03-23T21:04:53;7.40;74.70
15394;DHT22;7795;47.986;11.868;2024-03-23T21:07:19;7.30;74.70
15394;DHT22;7795;47.986;11.868;2024-03-23T21:09:45;7.40;74.80
15394;DHT22;7795;47.986;11.868;2024-03-23T21:12:11;7.30;74.70
15394;DHT22;7795;47.986;11.868;2024-03-23T21:14:37;7.40;74.80
15394;DHT22;7795;47.986;11.868;2024-03-23T21:17:04;7.30;74.80
15394;DHT22;7795;47.986;11.868;2024-03-23T21:19:29;7.40;75.10
15394;DHT22;7795;47.986;11.868;2024-03-23T21:21:57;7.40;75.10